sensor_id;sensor_type;location;lat;lon;timestamp;P1;durP1;ratioP1;P2;durP2;ratioP2
33810;SDS011;20119;48.334;16.206;2023-08-31T00:01:49;4.43;;;3.33;;
33810;SDS011;20119;48.334;16.206;2023-08-31T00:04:21;3.80;;;3.40;;
33810;SDS011;20119;48.334;16.206;2023-08-31T00:11:50;4.93;;;4.00;;
33810;SDS011;20119;48.334;16.206;2023-08-31T00:14:22;3.97;;;3.58;;
33810;SDS011;20119;48.334;16.206;2023-08-31T00:16:52;4.65;;;4.13;;
33810;SDS011;20119;48.334;16.206;2023-08-31T00:19:23;4.45;;;4.03;;
33810;SDS011;20119;48.334;16.206;2023-08-31T00:21:56;4.20;;;3.80;;
33810;SDS011;20119;48.334;16.206;2023-08-31T00:24:25;5.88;;;4.05;;
33810;SDS011;20119;48.334;16.206;2023-08-31T00:26:58;4.80;;;4.22;;
33810;SDS011;20119;48.334;16.206;2023-08-31T00:29:27;4.95;;;4.45;;
33810;SDS011;20119;48.334;16.206;2023-08-31T00:31:56;4.68;;;4.28;;
33810;SDS011;20119;48.334;16.206;2023-08-31T01:29:03;8.98;;;6.53;;
33810;SDS011;20119;48.334;16.206;2023-08-31T01:31:45;7.10;;;6.50;;
33810;SDS011;20119;48.334;16.206;2023-08-31T01:34:19;7.22;;;6.53;;
33810;SDS011;20119;48.334;16.206;2023-08-31T01:36:52;7.57;;;6.82;;
33810;SDS011;20119;48.334;16.206;2023-08-31T01:39:31;7.95;;;7.15;;
33810;SDS011;20119;48.334;16.206;2023-08-31T01:42:13;7.13;;;6.43;;
33810;SDS011;20119;48.334;16.206;2023-08-31T01:52:34;8.05;;;7.25;;
33810;SDS011;20119;48.334;16.206;2023-08-31T01:55:05;9.07;;;7.18;;
33810;SDS011;20119;48.334;16.206;2023-08-31T01:57:35;7.32;;;6.63;;
33810;SDS011;20119;48.334;16.206;2023-08-31T02:00:04;7.20;;;6.50;;
33810;SDS011;20119;48.334;16.206;2023-08-31T02:02:35;7.30;;;6.60;;
33810;SDS011;20119;48.334;16.206;2023-08-31T02:05:05;7.78;;;7.05;;
33810;SDS011;20119;48.334;16.206;2023-08-31T02:36:22;7.43;;;6.82;;
33810;SDS011;20119;48.334;16.206;2023-08-31T02:38:51;7.25;;;6.65;;
33810;SDS011;20119;48.334;16.206;2023-08-31T02:43:51;7.95;;;7.15;;
33810;SDS011;20119;48.334;16.206;2023-08-31T02:46:21;7.97;;;7.18;;
33810;SDS011;20119;48.334;16.206;2023-08-31T02:48:52;8.18;;;7.47;;
33810;SDS011;20119;48.334;16.206;2023-08-31T02:53:57;8.20;;;7.50;;
33810;SDS011;20119;48.334;16.206;2023-08-31T03:17:33;9.63;;;8.00;;
33810;SDS011;20119;48.334;16.206;2023-08-31T03:27:50;8.63;;;7.72;;
33810;SDS011;20119;48.334;16.206;2023-08-31T03:35:37;9.90;;;8.45;;
33810;SDS011;20119;48.334;16.206;2023-08-31T03:51:05;8.45;;;7.65;;
33810;SDS011;20119;48.334;16.206;2023-08-31T03:53:34;9.13;;;7.45;;
33810;SDS011;20119;48.334;16.206;2023-08-31T07:41:34;3.17;;;1.67;;
33810;SDS011;20119;48.334;16.206;2023-08-31T07:51:49;3.47;;;1.90;;
33810;SDS011;20119;48.334;16.206;2023-08-31T07:54:20;1.85;;;1.67;;
33810;SDS011;20119;48.334;16.206;2023-08-31T08:30:53;2.72;;;2.20;;
33810;SDS011;20119;48.334;16.206;2023-08-31T08:36:16;3.20;;;2.13;;
33810;SDS011;20119;48.334;16.206;2023-08-31T08:44:24;3.72;;;2.00;;
33810;SDS011;20119;48.334;16.206;2023-08-31T08:46:54;4.50;;;2.10;;
33810;SDS011;20119;48.334;16.206;2023-08-31T08:49:24;2.08;;;1.88;;
33810;SDS011;20119;48.334;16.206;2023-08-31T08:51:52;3.63;;;2.30;;
33810;SDS011;20119;48.334;16.206;2023-08-31T08:54:20;2.00;;;1.80;;
33810;SDS011;20119;48.334;16.206;2023-08-31T08:56:49;2.70;;;2.13;;
33810;SDS011;20119;48.334;16.206;2023-08-31T08:59:22;2.42;;;2.00;;
33810;SDS011;20119;48.334;16.206;2023-08-31T11:47:05;4.03;;;1.52;;
33810;SDS011;20119;48.334;16.206;2023-08-31T11:57:38;2.25;;;1.25;;
33810;SDS011;20119;48.334;16.206;2023-08-31T12:00:07;1.85;;;1.40;;
33810;SDS011;20119;48.334;16.206;2023-08-31T15:26:25;4.18;;;1.60;;
33810;SDS011;20119;48.334;16.206;2023-08-31T15:28:55;2.90;;;1.58;;
33810;SDS011;20119;48.334;16.206;2023-08-31T16:36:11;3.58;;;1.80;;
33810;SDS011;20119;48.334;16.206;2023-08-31T16:38:44;3.38;;;2.03;;
33810;SDS011;20119;48.334;16.206;2023-08-31T16:49:07;2.60;;;1.90;;
33810;SDS011;20119;48.334;16.206;2023-08-31T16:51:56;3.83;;;1.90;;
33810;SDS011;20119;48.334;16.206;2023-08-31T17:02:26;3.95;;;1.80;;
33810;SDS011;20119;48.334;16.206;2023-08-31T17:18:02;4.20;;;2.20;;
33810;SDS011;20119;48.334;16.206;2023-08-31T17:20:33;2.83;;;2.10;;
33810;SDS011;20119;48.334;16.206;2023-08-31T17:46:40;2.58;;;1.77;;
33810;SDS011;20119;48.334;16.206;2023-08-31T17:49:12;3.25;;;1.90;;
33810;SDS011;20119;48.334;16.206;2023-08-31T17:51:42;3.58;;;1.83;;
33810;SDS011;20119;48.334;16.206;2023-08-31T17:54:16;2.58;;;1.70;;
33810;SDS011;20119;48.334;16.206;2023-08-31T17:56:51;4.35;;;2.00;;
33810;SDS011;20119;48.334;16.206;2023-08-31T17:59:26;2.65;;;1.90;;
33810;SDS011;20119;48.334;16.206;2023-08-31T18:02:05;3.55;;;2.13;;
33810;SDS011;20119;48.334;16.206;2023-08-31T18:04:36;5.90;;;2.47;;
33810;SDS011;20119;48.334;16.206;2023-08-31T18:07:08;9.68;;;5.25;;
33810;SDS011;20119;48.334;16.206;2023-08-31T18:09:41;5.45;;;2.80;;
33810;SDS011;20119;48.334;16.206;2023-08-31T18:12:10;5.03;;;3.03;;
33810;SDS011;20119;48.334;16.206;2023-08-31T18:14:43;11.43;;;6.07;;
33810;SDS011;20119;48.334;16.206;2023-08-31T18:17:15;6.17;;;2.73;;
33810;SDS011;20119;48.334;16.206;2023-08-31T18:19:44;3.15;;;2.30;;
33810;SDS011;20119;48.334;16.206;2023-08-31T18:22:17;8.15;;;3.83;;
33810;SDS011;20119;48.334;16.206;2023-08-31T18:24:46;4.63;;;2.03;;
33810;SDS011;20119;48.334;16.206;2023-08-31T18:27:16;11.63;;;6.45;;
33810;SDS011;20119;48.334;16.206;2023-08-31T18:29:51;10.38;;;4.30;;
33810;SDS011;20119;48.334;16.206;2023-08-31T18:32:25;3.75;;;2.20;;
33810;SDS011;20119;48.334;16.206;2023-08-31T18:34:56;7.82;;;3.67;;
33810;SDS011;20119;48.334;16.206;2023-08-31T18:37:31;15.18;;;7.78;;
33810;SDS011;20119;48.334;16.206;2023-08-31T18:40:03;3.75;;;2.42;;
33810;SDS011;20119;48.334;16.206;2023-08-31T18:42:36;6.85;;;3.47;;
33810;SDS011;20119;48.334;16.206;2023-08-31T18:45:12;6.38;;;2.97;;
33810;SDS011;20119;48.334;16.206;2023-08-31T18:47:45;2.80;;;2.10;;
33810;SDS011;20119;48.334;16.206;2023-08-31T18:50:14;8.38;;;4.95;;
33810;SDS011;20119;48.334;16.206;2023-08-31T18:52:46;2.83;;;2.30;;
33810;SDS011;20119;48.334;16.206;2023-08-31T18:55:16;7.50;;;4.40;;
33810;SDS011;20119;48.334;16.206;2023-08-31T18:57:48;6.60;;;3.10;;
33810;SDS011;20119;48.334;16.206;2023-08-31T19:02:52;6.95;;;4.05;;
33810;SDS011;20119;48.334;16.206;2023-08-31T19:05:23;5.13;;;3.20;;
33810;SDS011;20119;48.334;16.206;2023-08-31T19:07:53;4.63;;;2.50;;
33810;SDS011;20119;48.334;16.206;2023-08-31T19:10:25;6.28;;;3.15;;
33810;SDS011;20119;48.334;16.206;2023-08-31T19:12:55;4.07;;;2.50;;
33810;SDS011;20119;48.334;16.206;2023-08-31T19:15:24;2.65;;;2.28;;
33810;SDS011;20119;48.334;16.206;2023-08-31T19:17:59;4.43;;;2.90;;
33810;SDS011;20119;48.334;16.206;2023-08-31T19:20:29;3.65;;;2.22;;
33810;SDS011;20119;48.334;16.206;2023-08-31T19:23:04;3.85;;;2.30;;
33810;SDS011;20119;48.334;16.206;2023-08-31T19:25:36;2.75;;;2.10;;
33810;SDS011;20119;48.334;16.206;2023-08-31T19:28:07;4.43;;;2.20;;
33810;SDS011;20119;48.334;16.206;2023-08-31T19:30:38;3.58;;;2.00;;
33810;SDS011;20119;48.334;16.206;2023-08-31T19:33:09;3.35;;;2.38;;
33810;SDS011;20119;48.334;16.206;2023-08-31T19:35:39;4.13;;;2.20;;
33810;SDS011;20119;48.334;16.206;2023-08-31T19:38:08;4.25;;;2.20;;
33810;SDS011;20119;48.334;16.206;2023-08-31T19:40:42;3.30;;;2.20;;
33810;SDS011;20119;48.334;16.206;2023-08-31T19:43:14;3.40;;;2.00;;
33810;SDS011;20119;48.334;16.206;2023-08-31T19:45:47;3.03;;;1.90;;
33810;SDS011;20119;48.334;16.206;2023-08-31T19:48:21;3.33;;;2.22;;
33810;SDS011;20119;48.334;16.206;2023-08-31T19:50:50;3.83;;;2.30;;
33810;SDS011;20119;48.334;16.206;2023-08-31T19:53:19;2.85;;;2.40;;
33810;SDS011;20119;48.334;16.206;2023-08-31T19:55:54;2.50;;;2.00;;
33810;SDS011;20119;48.334;16.206;2023-08-31T19:58:25;2.88;;;2.08;;
33810;SDS011;20119;48.334;16.206;2023-08-31T20:00:56;6.55;;;2.00;;
33810;SDS011;20119;48.334;16.206;2023-08-31T20:03:37;4.43;;;2.00;;
33810;SDS011;20119;48.334;16.206;2023-08-31T20:06:08;4.18;;;2.30;;
33810;SDS011;20119;48.334;16.206;2023-08-31T20:08:41;2.97;;;2.47;;
33810;SDS011;20119;48.334;16.206;2023-08-31T20:11:12;5.20;;;2.10;;
33810;SDS011;20119;48.334;16.206;2023-08-31T20:13:43;4.35;;;2.35;;
33810;SDS011;20119;48.334;16.206;2023-08-31T20:16:13;4.85;;;2.60;;
33810;SDS011;20119;48.334;16.206;2023-08-31T20:18:43;5.13;;;2.60;;
33810;SDS011;20119;48.334;16.206;2023-08-31T20:21:14;3.97;;;2.65;;
33810;SDS011;20119;48.334;16.206;2023-08-31T20:23:44;3.47;;;2.53;;
33810;SDS011;20119;48.334;16.206;2023-08-31T20:26:23;2.80;;;2.50;;
33810;SDS011;20119;48.334;16.206;2023-08-31T20:32:11;3.28;;;2.47;;
33810;SDS011;20119;48.334;16.206;2023-08-31T20:35:07;4.97;;;2.83;;
33810;SDS011;20119;48.334;16.206;2023-08-31T20:37:37;3.38;;;2.60;;
33810;SDS011;20119;48.334;16.206;2023-08-31T20:40:09;4.32;;;2.80;;
33810;SDS011;20119;48.334;16.206;2023-08-31T20:42:43;4.95;;;2.85;;
33810;SDS011;20119;48.334;16.206;2023-08-31T20:45:27;3.28;;;2.65;;
33810;SDS011;20119;48.334;16.206;2023-08-31T20:48:01;4.03;;;3.03;;
33810;SDS011;20119;48.334;16.206;2023-08-31T20:55:53;4.03;;;2.60;;
33810;SDS011;20119;48.334;16.206;2023-08-31T21:11:40;6.75;;;4.53;;
33810;SDS011;20119;48.334;16.206;2023-08-31T21:42:53;3.78;;;3.15;;
33810;SDS011;20119;48.334;16.206;2023-08-31T21:45:26;4.05;;;2.97;;
33810;SDS011;20119;48.334;16.206;2023-08-31T21:48:01;5.78;;;3.10;;
33810;SDS011;20119;48.334;16.206;2023-08-31T21:55:44;3.88;;;2.80;;
33810;SDS011;20119;48.334;16.206;2023-08-31T21:58:16;4.38;;;2.88;;
33810;SDS011;20119;48.334;16.206;2023-08-31T22:00:45;4.07;;;2.80;;
33810;SDS011;20119;48.334;16.206;2023-08-31T22:03:17;4.30;;;2.90;;
33810;SDS011;20119;48.334;16.206;2023-08-31T22:08:16;4.78;;;3.30;;
33810;SDS011;20119;48.334;16.206;2023-08-31T22:10:45;3.30;;;2.72;;
33810;SDS011;20119;48.334;16.206;2023-08-31T22:13:18;5.13;;;2.80;;
33810;SDS011;20119;48.334;16.206;2023-08-31T22:15:47;4.68;;;2.70;;
33810;SDS011;20119;48.334;16.206;2023-08-31T22:18:18;2.97;;;2.67;;
33810;SDS011;20119;48.334;16.206;2023-08-31T22:20:47;4.03;;;3.00;;
33810;SDS011;20119;48.334;16.206;2023-08-31T22:23:17;5.13;;;2.85;;
33810;SDS011;20119;48.334;16.206;2023-08-31T22:25:46;4.43;;;2.95;;
33810;SDS011;20119;48.334;16.206;2023-08-31T22:28:18;3.53;;;2.70;;
33810;SDS011;20119;48.334;16.206;2023-08-31T22:30:47;3.40;;;2.72;;
33810;SDS011;20119;48.334;16.206;2023-08-31T22:33:18;4.70;;;2.78;;
33810;SDS011;20119;48.334;16.206;2023-08-31T22:35:54;5.53;;;2.85;;
33810;SDS011;20119;48.334;16.206;2023-08-31T22:38:23;3.58;;;2.80;;
33810;SDS011;20119;48.334;16.206;2023-08-31T22:40:53;3.60;;;2.70;;
33810;SDS011;20119;48.334;16.206;2023-08-31T22:43:24;3.88;;;3.00;;
33810;SDS011;20119;48.334;16.206;2023-08-31T22:45:56;3.47;;;2.88;;
33810;SDS011;20119;48.334;16.206;2023-08-31T22:50:58;3.10;;;2.70;;
33810;SDS011;20119;48.334;16.206;2023-08-31T22:53:29;4.18;;;2.97;;
33810;SDS011;20119;48.334;16.206;2023-08-31T22:55:58;5.70;;;3.20;;
33810;SDS011;20119;48.334;16.206;2023-08-31T22:58:30;4.45;;;3.42;;
33810;SDS011;20119;48.334;16.206;2023-08-31T23:01:02;4.60;;;2.90;;
33810;SDS011;20119;48.334;16.206;2023-08-31T23:03:33;3.33;;;3.00;;
33810;SDS011;20119;48.334;16.206;2023-08-31T23:06:03;5.03;;;3.00;;
33810;SDS011;20119;48.334;16.206;2023-08-31T23:08:32;5.88;;;3.35;;
33810;SDS011;20119;48.334;16.206;2023-08-31T23:11:05;4.40;;;3.28;;
33810;SDS011;20119;48.334;16.206;2023-08-31T23:13:42;4.40;;;3.40;;
33810;SDS011;20119;48.334;16.206;2023-08-31T23:16:14;4.43;;;3.40;;
33810;SDS011;20119;48.334;16.206;2023-08-31T23:18:47;4.72;;;3.22;;
33810;SDS011;20119;48.334;16.206;2023-08-31T23:21:28;3.33;;;2.90;;
33810;SDS011;20119;48.334;16.206;2023-08-31T23:24:00;5.00;;;3.50;;
33810;SDS011;20119;48.334;16.206;2023-08-31T23:26:30;4.67;;;3.20;;
33810;SDS011;20119;48.334;16.206;2023-08-31T23:29:01;4.93;;;3.10;;
33810;SDS011;20119;48.334;16.206;2023-08-31T23:31:32;5.05;;;3.03;;
33810;SDS011;20119;48.334;16.206;2023-08-31T23:36:31;3.38;;;3.03;;
33810;SDS011;20119;48.334;16.206;2023-08-31T23:39:07;6.03;;;3.65;;
33810;SDS011;20119;48.334;16.206;2023-08-31T23:41:39;4.70;;;3.50;;
33810;SDS011;20119;48.334;16.206;2023-08-31T23:44:12;4.65;;;3.50;;
33810;SDS011;20119;48.334;16.206;2023-08-31T23:46:43;4.53;;;3.47;;
33810;SDS011;20119;48.334;16.206;2023-08-31T23:49:15;4.07;;;3.67;;
33810;SDS011;20119;48.334;16.206;2023-08-31T23:51:50;6.43;;;3.85;;
33810;SDS011;20119;48.334;16.206;2023-08-31T23:54:20;4.32;;;3.72;;
33810;SDS011;20119;48.334;16.206;2023-08-31T23:56:53;4.78;;;3.90;;
33810;SDS011;20119;48.334;16.206;2023-08-31T23:59:25;4.00;;;3.60;;
